sensor_id;sensor_type;location;lat;lon;timestamp;temperature;humidity
43995;DHT22;51687;52.160;5.298;2023-07-08T00:00:54;24.60;48.20
43995;DHT22;51687;52.160;5.298;2023-07-08T00:03:23;24.60;48.20
43995;DHT22;51687;52.160;5.298;2023-07-08T00:05:53;24.60;47.80
43995;DHT22;51687;52.160;5.298;2023-07-08T00:08:21;24.50;47.90
43995;DHT22;51687;52.160;5.298;2023-07-08T00:10:48;24.60;48.40
43995;DHT22;51687;52.160;5.298;2023-07-08T00:13:16;24.50;48.20
43995;DHT22;51687;52.160;5.298;2023-07-08T00:15:45;24.50;48.30
43995;DHT22;51687;52.160;5.298;2023-07-08T00:18:15;24.50;48.20
43995;DHT22;51687;52.160;5.298;2023-07-08T00:20:45;24.50;47.60
43995;DHT22;51687;52.160;5.298;2023-07-08T00:23:12;24.50;47.10
43995;DHT22;51687;52.160;5.298;2023-07-08T00:25:39;24.50;47.10
43995;DHT22;51687;52.160;5.298;2023-07-08T00:28:20;24.50;47.10
43995;DHT22;51687;52.160;5.298;2023-07-08T00:30:48;24.50;47.50
43995;DHT22;51687;52.160;5.298;2023-07-08T00:33:15;24.50;47.30
43995;DHT22;51687;52.160;5.298;2023-07-08T00:35:44;24.50;47.40
43995;DHT22;51687;52.160;5.298;2023-07-08T00:38:15;24.50;47.90
43995;DHT22;51687;52.160;5.298;2023-07-08T00:40:59;24.50;49.30
43995;DHT22;51687;52.160;5.298;2023-07-08T00:43:48;24.40;48.10
43995;DHT22;51687;52.160;5.298;2023-07-08T00:49:00;24.40;47.10
43995;DHT22;51687;52.160;5.298;2023-07-08T00:51:29;24.40;47.00
43995;DHT22;51687;52.160;5.298;2023-07-08T00:53:56;24.40;46.90
43995;DHT22;51687;52.160;5.298;2023-07-08T00:56:32;24.40;46.80
43995;DHT22;51687;52.160;5.298;2023-07-08T00:59:08;24.40;47.10
43995;DHT22;51687;52.160;5.298;2023-07-08T01:01:38;24.40;47.10
43995;DHT22;51687;52.160;5.298;2023-07-08T01:04:11;24.30;46.80
43995;DHT22;51687;52.160;5.298;2023-07-08T01:06:43;24.30;46.90
43995;DHT22;51687;52.160;5.298;2023-07-08T01:09:14;24.30;46.80
43995;DHT22;51687;52.160;5.298;2023-07-08T01:11:42;24.30;46.90
43995;DHT22;51687;52.160;5.298;2023-07-08T01:14:12;24.30;47.30
43995;DHT22;51687;52.160;5.298;2023-07-08T01:16:40;24.30;47.30
43995;DHT22;51687;52.160;5.298;2023-07-08T01:19:14;24.30;47.10
43995;DHT22;51687;52.160;5.298;2023-07-08T01:24:21;24.30;47.40
43995;DHT22;51687;52.160;5.298;2023-07-08T01:26:48;24.30;47.30
43995;DHT22;51687;52.160;5.298;2023-07-08T01:29:15;24.30;46.90
43995;DHT22;51687;52.160;5.298;2023-07-08T01:31:42;24.30;47.10
43995;DHT22;51687;52.160;5.298;2023-07-08T01:34:16;24.30;47.40
43995;DHT22;51687;52.160;5.298;2023-07-08T01:36:49;24.30;47.20
43995;DHT22;51687;52.160;5.298;2023-07-08T01:39:18;24.30;47.90
43995;DHT22;51687;52.160;5.298;2023-07-08T01:41:46;24.30;47.30
43995;DHT22;51687;52.160;5.298;2023-07-08T01:44:27;24.30;47.30
43995;DHT22;51687;52.160;5.298;2023-07-08T01:47:00;24.20;47.60
43995;DHT22;51687;52.160;5.298;2023-07-08T01:49:33;24.20;47.70
43995;DHT22;51687;52.160;5.298;2023-07-08T01:52:02;24.30;47.60
43995;DHT22;51687;52.160;5.298;2023-07-08T01:54:29;24.20;47.70
43995;DHT22;51687;52.160;5.298;2023-07-08T01:56:57;24.20;47.90
43995;DHT22;51687;52.160;5.298;2023-07-08T01:59:24;24.20;48.20
43995;DHT22;51687;52.160;5.298;2023-07-08T02:01:52;24.20;48.10
43995;DHT22;51687;52.160;5.298;2023-07-08T02:04:22;24.20;47.90
43995;DHT22;51687;52.160;5.298;2023-07-08T02:06:54;24.20;47.80
43995;DHT22;51687;52.160;5.298;2023-07-08T02:09:22;24.20;48.00
43995;DHT22;51687;52.160;5.298;2023-07-08T02:11:49;24.20;47.90
43995;DHT22;51687;52.160;5.298;2023-07-08T02:14:15;24.20;48.00
43995;DHT22;51687;52.160;5.298;2023-07-08T02:16:42;24.20;47.70
43995;DHT22;51687;52.160;5.298;2023-07-08T02:19:10;24.20;47.90
43995;DHT22;51687;52.160;5.298;2023-07-08T02:21:38;24.10;48.20
43995;DHT22;51687;52.160;5.298;2023-07-08T02:24:05;24.10;48.00
43995;DHT22;51687;52.160;5.298;2023-07-08T02:26:33;24.10;47.90
43995;DHT22;51687;52.160;5.298;2023-07-08T02:29:01;24.10;47.80
43995;DHT22;51687;52.160;5.298;2023-07-08T02:31:27;24.10;48.00
43995;DHT22;51687;52.160;5.298;2023-07-08T02:33:54;24.10;47.70
43995;DHT22;51687;52.160;5.298;2023-07-08T02:36:21;24.10;48.10
43995;DHT22;51687;52.160;5.298;2023-07-08T02:38:48;24.10;48.10
43995;DHT22;51687;52.160;5.298;2023-07-08T02:41:15;24.10;48.00
43995;DHT22;51687;52.160;5.298;2023-07-08T02:43:42;24.10;47.80
43995;DHT22;51687;52.160;5.298;2023-07-08T02:46:08;24.10;48.10
43995;DHT22;51687;52.160;5.298;2023-07-08T02:48:35;24.10;48.10
43995;DHT22;51687;52.160;5.298;2023-07-08T02:51:04;24.10;47.80
43995;DHT22;51687;52.160;5.298;2023-07-08T02:53:31;24.00;47.80
43995;DHT22;51687;52.160;5.298;2023-07-08T02:55:58;24.10;48.30
43995;DHT22;51687;52.160;5.298;2023-07-08T02:58:25;24.00;48.10
43995;DHT22;51687;52.160;5.298;2023-07-08T03:00:56;24.00;48.00
43995;DHT22;51687;52.160;5.298;2023-07-08T03:03:27;24.00;48.20
43995;DHT22;51687;52.160;5.298;2023-07-08T03:06:00;24.00;48.30
43995;DHT22;51687;52.160;5.298;2023-07-08T03:08:28;24.00;48.10
43995;DHT22;51687;52.160;5.298;2023-07-08T03:10:58;24.00;48.10
43995;DHT22;51687;52.160;5.298;2023-07-08T03:13:25;24.00;48.10
43995;DHT22;51687;52.160;5.298;2023-07-08T03:15:53;24.00;48.10
43995;DHT22;51687;52.160;5.298;2023-07-08T03:18:21;24.00;48.00
43995;DHT22;51687;52.160;5.298;2023-07-08T03:20:50;24.00;49.80
43995;DHT22;51687;52.160;5.298;2023-07-08T03:23:17;24.00;48.10
43995;DHT22;51687;52.160;5.298;2023-07-08T03:25:44;23.90;48.20
43995;DHT22;51687;52.160;5.298;2023-07-08T03:28:11;24.00;48.80
43995;DHT22;51687;52.160;5.298;2023-07-08T03:30:42;23.90;48.40
43995;DHT22;51687;52.160;5.298;2023-07-08T03:33:10;23.90;48.20
43995;DHT22;51687;52.160;5.298;2023-07-08T03:35:37;23.90;48.20
43995;DHT22;51687;52.160;5.298;2023-07-08T03:38:07;23.90;48.40
43995;DHT22;51687;52.160;5.298;2023-07-08T03:40:34;23.90;48.40
43995;DHT22;51687;52.160;5.298;2023-07-08T03:43:00;23.90;48.50
43995;DHT22;51687;52.160;5.298;2023-07-08T03:45:27;23.90;48.80
43995;DHT22;51687;52.160;5.298;2023-07-08T03:47:54;23.90;48.70
43995;DHT22;51687;52.160;5.298;2023-07-08T03:50:25;23.90;48.70
43995;DHT22;51687;52.160;5.298;2023-07-08T03:52:54;23.90;48.70
43995;DHT22;51687;52.160;5.298;2023-07-08T03:55:22;23.90;48.90
43995;DHT22;51687;52.160;5.298;2023-07-08T03:57:49;23.90;49.00
43995;DHT22;51687;52.160;5.298;2023-07-08T04:00:17;23.80;48.90
43995;DHT22;51687;52.160;5.298;2023-07-08T04:02:45;23.80;48.60
43995;DHT22;51687;52.160;5.298;2023-07-08T04:05:16;23.80;48.80
43995;DHT22;51687;52.160;5.298;2023-07-08T04:07:43;23.80;49.10
43995;DHT22;51687;52.160;5.298;2023-07-08T04:10:11;23.80;49.10
43995;DHT22;51687;52.160;5.298;2023-07-08T04:12:38;23.80;49.00
43995;DHT22;51687;52.160;5.298;2023-07-08T04:15:08;23.80;49.20
43995;DHT22;51687;52.160;5.298;2023-07-08T04:17:46;23.80;49.30
43995;DHT22;51687;52.160;5.298;2023-07-08T04:20:17;23.80;49.30
43995;DHT22;51687;52.160;5.298;2023-07-08T04:22:45;23.80;49.20
43995;DHT22;51687;52.160;5.298;2023-07-08T04:25:12;23.80;49.10
43995;DHT22;51687;52.160;5.298;2023-07-08T04:27:41;23.80;49.50
43995;DHT22;51687;52.160;5.298;2023-07-08T04:30:18;23.80;49.10
43995;DHT22;51687;52.160;5.298;2023-07-08T04:32:46;23.80;49.10
43995;DHT22;51687;52.160;5.298;2023-07-08T04:35:14;23.80;49.10
43995;DHT22;51687;52.160;5.298;2023-07-08T04:37:41;23.80;49.70
43995;DHT22;51687;52.160;5.298;2023-07-08T04:40:16;23.80;49.50
43995;DHT22;51687;52.160;5.298;2023-07-08T04:42:43;23.80;49.20
43995;DHT22;51687;52.160;5.298;2023-07-08T04:45:11;23.70;49.10
43995;DHT22;51687;52.160;5.298;2023-07-08T04:47:38;23.70;49.20
43995;DHT22;51687;52.160;5.298;2023-07-08T04:50:05;23.70;49.00
43995;DHT22;51687;52.160;5.298;2023-07-08T04:52:32;23.70;49.10
43995;DHT22;51687;52.160;5.298;2023-07-08T04:54:59;23.70;49.30
43995;DHT22;51687;52.160;5.298;2023-07-08T04:57:25;23.70;49.40
43995;DHT22;51687;52.160;5.298;2023-07-08T04:59:52;23.70;49.40
43995;DHT22;51687;52.160;5.298;2023-07-08T05:02:19;23.70;49.50
43995;DHT22;51687;52.160;5.298;2023-07-08T05:04:46;23.70;49.10
43995;DHT22;51687;52.160;5.298;2023-07-08T05:07:13;23.70;49.50
43995;DHT22;51687;52.160;5.298;2023-07-08T05:09:40;23.70;49.20
43995;DHT22;51687;52.160;5.298;2023-07-08T05:12:07;23.70;49.60
43995;DHT22;51687;52.160;5.298;2023-07-08T05:14:34;23.70;49.60
43995;DHT22;51687;52.160;5.298;2023-07-08T05:17:00;23.70;49.60
43995;DHT22;51687;52.160;5.298;2023-07-08T05:19:27;23.70;49.60
43995;DHT22;51687;52.160;5.298;2023-07-08T05:21:54;23.70;49.70
43995;DHT22;51687;52.160;5.298;2023-07-08T05:24:21;23.70;49.50
43995;DHT22;51687;52.160;5.298;2023-07-08T05:26:48;23.70;49.50
43995;DHT22;51687;52.160;5.298;2023-07-08T05:29:15;23.70;50.00
43995;DHT22;51687;52.160;5.298;2023-07-08T05:31:42;23.70;49.80
43995;DHT22;51687;52.160;5.298;2023-07-08T05:34:14;23.70;49.90
43995;DHT22;51687;52.160;5.298;2023-07-08T05:36:41;23.70;49.90
43995;DHT22;51687;52.160;5.298;2023-07-08T05:39:08;23.70;50.20
43995;DHT22;51687;52.160;5.298;2023-07-08T05:41:35;23.70;50.80
43995;DHT22;51687;52.160;5.298;2023-07-08T05:44:02;23.70;50.40
43995;DHT22;51687;52.160;5.298;2023-07-08T05:46:28;23.70;50.80
43995;DHT22;51687;52.160;5.298;2023-07-08T05:48:55;23.70;51.20
43995;DHT22;51687;52.160;5.298;2023-07-08T05:51:26;23.70;50.90
43995;DHT22;51687;52.160;5.298;2023-07-08T05:53:52;23.70;50.60
43995;DHT22;51687;52.160;5.298;2023-07-08T05:56:19;23.70;50.50
43995;DHT22;51687;52.160;5.298;2023-07-08T05:58:46;23.70;50.60
43995;DHT22;51687;52.160;5.298;2023-07-08T06:01:13;23.70;50.70
43995;DHT22;51687;52.160;5.298;2023-07-08T06:03:40;23.60;50.30
43995;DHT22;51687;52.160;5.298;2023-07-08T06:06:07;23.60;50.50
43995;DHT22;51687;52.160;5.298;2023-07-08T06:08:34;23.60;50.30
43995;DHT22;51687;52.160;5.298;2023-07-08T06:11:01;23.60;50.10
43995;DHT22;51687;52.160;5.298;2023-07-08T06:13:28;23.60;50.40
43995;DHT22;51687;52.160;5.298;2023-07-08T06:15:56;23.60;50.10
43995;DHT22;51687;52.160;5.298;2023-07-08T06:18:23;23.60;49.90
43995;DHT22;51687;52.160;5.298;2023-07-08T06:20:57;23.60;50.20
43995;DHT22;51687;52.160;5.298;2023-07-08T06:23:25;23.60;51.10
43995;DHT22;51687;52.160;5.298;2023-07-08T06:25:52;23.60;50.60
43995;DHT22;51687;52.160;5.298;2023-07-08T06:28:20;23.60;50.30
43995;DHT22;51687;52.160;5.298;2023-07-08T06:30:47;23.60;50.30
43995;DHT22;51687;52.160;5.298;2023-07-08T06:33:14;23.60;50.20
43995;DHT22;51687;52.160;5.298;2023-07-08T06:35:42;23.60;50.20
43995;DHT22;51687;52.160;5.298;2023-07-08T06:38:09;23.60;50.00
43995;DHT22;51687;52.160;5.298;2023-07-08T06:40:36;23.60;50.50
43995;DHT22;51687;52.160;5.298;2023-07-08T06:43:03;23.60;50.20
43995;DHT22;51687;52.160;5.298;2023-07-08T06:45:30;23.60;50.30
43995;DHT22;51687;52.160;5.298;2023-07-08T06:47:57;23.60;50.20
43995;DHT22;51687;52.160;5.298;2023-07-08T06:50:24;23.60;50.60
43995;DHT22;51687;52.160;5.298;2023-07-08T06:52:50;23.60;50.90
43995;DHT22;51687;52.160;5.298;2023-07-08T06:55:17;23.60;50.70
43995;DHT22;51687;52.160;5.298;2023-07-08T06:57:44;23.60;50.70
43995;DHT22;51687;52.160;5.298;2023-07-08T07:00:11;23.60;50.70
43995;DHT22;51687;52.160;5.298;2023-07-08T07:02:38;23.60;51.00
43995;DHT22;51687;52.160;5.298;2023-07-08T07:05:06;23.60;50.90
43995;DHT22;51687;52.160;5.298;2023-07-08T07:07:33;23.60;51.00
43995;DHT22;51687;52.160;5.298;2023-07-08T07:10:01;23.60;50.70
43995;DHT22;51687;52.160;5.298;2023-07-08T07:12:28;23.60;50.20
43995;DHT22;51687;52.160;5.298;2023-07-08T07:14:55;23.60;50.30
43995;DHT22;51687;52.160;5.298;2023-07-08T07:17:23;23.60;50.80
43995;DHT22;51687;52.160;5.298;2023-07-08T07:19:53;23.60;51.00
43995;DHT22;51687;52.160;5.298;2023-07-08T07:22:20;23.60;50.80
43995;DHT22;51687;52.160;5.298;2023-07-08T07:24:48;23.60;51.40
43995;DHT22;51687;52.160;5.298;2023-07-08T07:27:15;23.60;50.80
43995;DHT22;51687;52.160;5.298;2023-07-08T07:29:47;23.60;50.50
43995;DHT22;51687;52.160;5.298;2023-07-08T07:32:16;23.60;50.60
43995;DHT22;51687;52.160;5.298;2023-07-08T07:34:47;23.60;50.60
43995;DHT22;51687;52.160;5.298;2023-07-08T07:37:15;23.60;50.60
43995;DHT22;51687;52.160;5.298;2023-07-08T07:39:42;23.70;50.80
43995;DHT22;51687;52.160;5.298;2023-07-08T07:42:10;23.70;50.70
43995;DHT22;51687;52.160;5.298;2023-07-08T07:44:42;23.70;50.70
43995;DHT22;51687;52.160;5.298;2023-07-08T07:47:10;23.70;50.70
43995;DHT22;51687;52.160;5.298;2023-07-08T07:49:37;23.70;51.30
43995;DHT22;51687;52.160;5.298;2023-07-08T07:52:04;23.70;51.50
43995;DHT22;51687;52.160;5.298;2023-07-08T07:54:32;23.70;51.10
43995;DHT22;51687;52.160;5.298;2023-07-08T07:56:59;23.70;51.40
43995;DHT22;51687;52.160;5.298;2023-07-08T07:59:26;23.70;51.40
43995;DHT22;51687;52.160;5.298;2023-07-08T08:01:53;23.70;50.50
43995;DHT22;51687;52.160;5.298;2023-07-08T08:04:19;23.70;51.40
43995;DHT22;51687;52.160;5.298;2023-07-08T08:06:46;23.80;51.70
43995;DHT22;51687;52.160;5.298;2023-07-08T08:09:13;23.70;52.10
43995;DHT22;51687;52.160;5.298;2023-07-08T08:11:40;23.80;51.70
43995;DHT22;51687;52.160;5.298;2023-07-08T08:14:07;23.80;50.60
43995;DHT22;51687;52.160;5.298;2023-07-08T08:16:34;23.80;50.20
43995;DHT22;51687;52.160;5.298;2023-07-08T08:19:01;23.80;50.70
43995;DHT22;51687;52.160;5.298;2023-07-08T08:21:28;23.80;51.60
43995;DHT22;51687;52.160;5.298;2023-07-08T08:23:55;23.90;51.20
43995;DHT22;51687;52.160;5.298;2023-07-08T08:26:23;23.90;51.50
43995;DHT22;51687;52.160;5.298;2023-07-08T08:28:50;23.90;51.50
43995;DHT22;51687;52.160;5.298;2023-07-08T08:31:16;23.90;51.10
43995;DHT22;51687;52.160;5.298;2023-07-08T08:33:43;23.90;51.80
43995;DHT22;51687;52.160;5.298;2023-07-08T08:36:10;23.90;52.20
43995;DHT22;51687;52.160;5.298;2023-07-08T08:38:37;23.90;52.10
43995;DHT22;51687;52.160;5.298;2023-07-08T08:41:15;23.90;52.00
43995;DHT22;51687;52.160;5.298;2023-07-08T08:43:43;24.00;51.00
43995;DHT22;51687;52.160;5.298;2023-07-08T08:49:10;24.00;51.90
43995;DHT22;51687;52.160;5.298;2023-07-08T08:51:40;24.10;52.20
43995;DHT22;51687;52.160;5.298;2023-07-08T08:54:08;24.10;52.30
43995;DHT22;51687;52.160;5.298;2023-07-08T08:56:44;24.10;51.90
43995;DHT22;51687;52.160;5.298;2023-07-08T09:01:59;24.20;52.30
43995;DHT22;51687;52.160;5.298;2023-07-08T09:04:33;24.20;52.60
43995;DHT22;51687;52.160;5.298;2023-07-08T09:07:16;24.20;52.40
43995;DHT22;51687;52.160;5.298;2023-07-08T09:09:51;24.20;52.40
43995;DHT22;51687;52.160;5.298;2023-07-08T09:12:25;24.20;52.10
43995;DHT22;51687;52.160;5.298;2023-07-08T09:14:52;24.30;51.90
43995;DHT22;51687;52.160;5.298;2023-07-08T09:17:31;24.30;52.40
43995;DHT22;51687;52.160;5.298;2023-07-08T09:25:35;24.30;51.80
43995;DHT22;51687;52.160;5.298;2023-07-08T09:28:02;24.40;51.90
43995;DHT22;51687;52.160;5.298;2023-07-08T09:30:29;24.40;52.50
43995;DHT22;51687;52.160;5.298;2023-07-08T09:32:58;24.40;52.60
43995;DHT22;51687;52.160;5.298;2023-07-08T09:35:37;24.40;51.90
43995;DHT22;51687;52.160;5.298;2023-07-08T09:38:09;24.50;52.60
43995;DHT22;51687;52.160;5.298;2023-07-08T09:40:36;24.50;52.60
43995;DHT22;51687;52.160;5.298;2023-07-08T09:43:16;24.50;52.20
43995;DHT22;51687;52.160;5.298;2023-07-08T09:45:46;24.60;52.80
43995;DHT22;51687;52.160;5.298;2023-07-08T09:48:24;24.60;53.50
43995;DHT22;51687;52.160;5.298;2023-07-08T09:50:52;24.70;51.70
43995;DHT22;51687;52.160;5.298;2023-07-08T09:53:20;24.70;51.70
43995;DHT22;51687;52.160;5.298;2023-07-08T09:55:48;24.70;50.50
43995;DHT22;51687;52.160;5.298;2023-07-08T09:58:25;24.70;50.40
43995;DHT22;51687;52.160;5.298;2023-07-08T10:01:00;24.80;48.90
43995;DHT22;51687;52.160;5.298;2023-07-08T10:03:33;24.80;50.00
43995;DHT22;51687;52.160;5.298;2023-07-08T10:06:05;24.80;50.70
43995;DHT22;51687;52.160;5.298;2023-07-08T10:08:41;24.90;50.10
43995;DHT22;51687;52.160;5.298;2023-07-08T10:11:22;24.90;49.60
43995;DHT22;51687;52.160;5.298;2023-07-08T10:13:54;24.90;50.00
43995;DHT22;51687;52.160;5.298;2023-07-08T10:16:38;24.90;48.90
43995;DHT22;51687;52.160;5.298;2023-07-08T10:19:14;24.90;49.20
43995;DHT22;51687;52.160;5.298;2023-07-08T10:24:33;25.00;50.90
43995;DHT22;51687;52.160;5.298;2023-07-08T10:30:24;25.10;49.80
43995;DHT22;51687;52.160;5.298;2023-07-08T11:30:38;25.10;47.00
43995;DHT22;51687;52.160;5.298;2023-07-08T11:33:12;26.00;45.10
43995;DHT22;51687;52.160;5.298;2023-07-08T12:16:37;26.00;44.90
43995;DHT22;51687;52.160;5.298;2023-07-08T12:34:00;27.10;42.10
43995;DHT22;51687;52.160;5.298;2023-07-08T12:36:30;27.40;44.30
43995;DHT22;51687;52.160;5.298;2023-07-08T12:39:01;27.30;43.90
43995;DHT22;51687;52.160;5.298;2023-07-08T12:41:29;27.40;45.10
43995;DHT22;51687;52.160;5.298;2023-07-08T12:43:57;27.30;45.80
43995;DHT22;51687;52.160;5.298;2023-07-08T12:46:25;27.30;45.20
43995;DHT22;51687;52.160;5.298;2023-07-08T12:48:52;27.40;44.60
43995;DHT22;51687;52.160;5.298;2023-07-08T12:56:15;27.50;42.10
43995;DHT22;51687;52.160;5.298;2023-07-08T12:58:46;27.60;40.80
43995;DHT22;51687;52.160;5.298;2023-07-08T13:01:28;27.60;41.90
43995;DHT22;51687;52.160;5.298;2023-07-08T13:04:02;27.60;42.90
43995;DHT22;51687;52.160;5.298;2023-07-08T13:06:31;27.50;41.10
43995;DHT22;51687;52.160;5.298;2023-07-08T13:11:41;27.50;38.80
43995;DHT22;51687;52.160;5.298;2023-07-08T13:14:09;27.60;41.20
43995;DHT22;51687;52.160;5.298;2023-07-08T13:16:36;27.60;41.00
43995;DHT22;51687;52.160;5.298;2023-07-08T13:19:03;27.60;38.70
43995;DHT22;51687;52.160;5.298;2023-07-08T13:21:31;27.60;40.80
43995;DHT22;51687;52.160;5.298;2023-07-08T13:23:59;27.60;38.80
43995;DHT22;51687;52.160;5.298;2023-07-08T13:26:29;27.60;37.70
43995;DHT22;51687;52.160;5.298;2023-07-08T13:29:14;27.60;38.50
43995;DHT22;51687;52.160;5.298;2023-07-08T13:31:49;27.70;39.40
43995;DHT22;51687;52.160;5.298;2023-07-08T13:34:18;27.70;40.00
43995;DHT22;51687;52.160;5.298;2023-07-08T15:01:57;27.70;38.90
43995;DHT22;51687;52.160;5.298;2023-07-08T15:04:24;28.90;39.20
43995;DHT22;51687;52.160;5.298;2023-07-08T15:06:52;28.80;40.20
43995;DHT22;51687;52.160;5.298;2023-07-08T15:56:35;28.80;41.50
43995;DHT22;51687;52.160;5.298;2023-07-08T15:59:02;29.50;39.60
43995;DHT22;51687;52.160;5.298;2023-07-08T16:01:29;29.50;39.40
43995;DHT22;51687;52.160;5.298;2023-07-08T16:03:56;29.60;38.70
43995;DHT22;51687;52.160;5.298;2023-07-08T16:06:25;29.60;38.90
43995;DHT22;51687;52.160;5.298;2023-07-08T16:08:52;29.60;40.00
43995;DHT22;51687;52.160;5.298;2023-07-08T16:11:29;29.60;39.50
43995;DHT22;51687;52.160;5.298;2023-07-08T16:13:57;29.60;40.40
43995;DHT22;51687;52.160;5.298;2023-07-08T16:16:25;29.60;40.40
43995;DHT22;51687;52.160;5.298;2023-07-08T16:18:52;29.60;40.90
43995;DHT22;51687;52.160;5.298;2023-07-08T16:21:19;29.60;40.60
43995;DHT22;51687;52.160;5.298;2023-07-08T16:23:46;29.60;41.70
43995;DHT22;51687;52.160;5.298;2023-07-08T16:26:15;29.60;43.60
43995;DHT22;51687;52.160;5.298;2023-07-08T16:28:44;29.60;42.30
43995;DHT22;51687;52.160;5.298;2023-07-08T16:31:16;29.60;41.80
43995;DHT22;51687;52.160;5.298;2023-07-08T16:33:43;29.70;42.40
43995;DHT22;51687;52.160;5.298;2023-07-08T16:36:22;29.70;42.50
43995;DHT22;51687;52.160;5.298;2023-07-08T16:38:49;29.70;42.50
43995;DHT22;51687;52.160;5.298;2023-07-08T16:41:18;29.70;45.40
43995;DHT22;51687;52.160;5.298;2023-07-08T16:43:46;29.70;45.10
43995;DHT22;51687;52.160;5.298;2023-07-08T16:46:16;29.70;42.10
43995;DHT22;51687;52.160;5.298;2023-07-08T16:48:43;29.70;43.90
43995;DHT22;51687;52.160;5.298;2023-07-08T16:51:27;29.80;43.00
43995;DHT22;51687;52.160;5.298;2023-07-08T16:54:01;29.80;42.70
43995;DHT22;51687;52.160;5.298;2023-07-08T16:56:35;29.70;43.20
43995;DHT22;51687;52.160;5.298;2023-07-08T16:59:06;29.70;43.10
43995;DHT22;51687;52.160;5.298;2023-07-08T17:01:32;29.70;44.00
43995;DHT22;51687;52.160;5.298;2023-07-08T17:03:59;29.70;43.80
43995;DHT22;51687;52.160;5.298;2023-07-08T17:06:27;29.70;44.20
43995;DHT22;51687;52.160;5.298;2023-07-08T17:08:54;29.70;43.70
43995;DHT22;51687;52.160;5.298;2023-07-08T17:11:20;29.70;44.70
43995;DHT22;51687;52.160;5.298;2023-07-08T17:13:47;29.80;44.60
43995;DHT22;51687;52.160;5.298;2023-07-08T17:16:21;29.70;44.10
43995;DHT22;51687;52.160;5.298;2023-07-08T17:18:53;29.80;43.90
43995;DHT22;51687;52.160;5.298;2023-07-08T17:21:20;29.80;44.20
43995;DHT22;51687;52.160;5.298;2023-07-08T17:23:47;29.80;44.20
43995;DHT22;51687;52.160;5.298;2023-07-08T17:26:14;29.70;44.30
43995;DHT22;51687;52.160;5.298;2023-07-08T17:28:42;29.70;44.00
43995;DHT22;51687;52.160;5.298;2023-07-08T17:31:09;29.80;43.40
43995;DHT22;51687;52.160;5.298;2023-07-08T17:33:40;29.70;43.60
43995;DHT22;51687;52.160;5.298;2023-07-08T17:36:12;29.70;43.10
43995;DHT22;51687;52.160;5.298;2023-07-08T17:38:45;29.70;44.60
43995;DHT22;51687;52.160;5.298;2023-07-08T17:41:15;29.70;44.40
43995;DHT22;51687;52.160;5.298;2023-07-08T17:43:43;29.70;43.30
43995;DHT22;51687;52.160;5.298;2023-07-08T17:46:12;29.80;43.60
43995;DHT22;51687;52.160;5.298;2023-07-08T17:48:41;29.70;43.00
43995;DHT22;51687;52.160;5.298;2023-07-08T17:51:14;29.70;43.00
43995;DHT22;51687;52.160;5.298;2023-07-08T17:53:41;29.80;42.30
43995;DHT22;51687;52.160;5.298;2023-07-08T17:56:29;29.80;43.10
43995;DHT22;51687;52.160;5.298;2023-07-08T17:58:57;29.80;42.90
43995;DHT22;51687;52.160;5.298;2023-07-08T18:01:24;29.80;43.80
43995;DHT22;51687;52.160;5.298;2023-07-08T18:03:52;29.80;43.90
43995;DHT22;51687;52.160;5.298;2023-07-08T18:06:20;29.80;45.80
43995;DHT22;51687;52.160;5.298;2023-07-08T18:08:48;29.80;46.10
43995;DHT22;51687;52.160;5.298;2023-07-08T18:11:21;29.80;47.90
43995;DHT22;51687;52.160;5.298;2023-07-08T18:13:51;29.90;46.70
43995;DHT22;51687;52.160;5.298;2023-07-08T18:16:19;29.90;50.10
43995;DHT22;51687;52.160;5.298;2023-07-08T18:18:47;29.90;50.40
43995;DHT22;51687;52.160;5.298;2023-07-08T18:21:21;29.90;51.30
43995;DHT22;51687;52.160;5.298;2023-07-08T18:23:52;29.90;50.60
43995;DHT22;51687;52.160;5.298;2023-07-08T18:26:23;29.90;50.40
43995;DHT22;51687;52.160;5.298;2023-07-08T18:28:50;29.90;51.50
43995;DHT22;51687;52.160;5.298;2023-07-08T18:31:24;29.90;51.70
43995;DHT22;51687;52.160;5.298;2023-07-08T18:33:52;29.90;50.60
43995;DHT22;51687;52.160;5.298;2023-07-08T18:36:18;29.90;50.90
43995;DHT22;51687;52.160;5.298;2023-07-08T18:38:45;29.90;51.10
43995;DHT22;51687;52.160;5.298;2023-07-08T18:41:24;29.90;50.30
43995;DHT22;51687;52.160;5.298;2023-07-08T18:43:54;29.90;51.30
43995;DHT22;51687;52.160;5.298;2023-07-08T18:46:21;29.90;51.10
43995;DHT22;51687;52.160;5.298;2023-07-08T18:48:50;29.90;51.40
43995;DHT22;51687;52.160;5.298;2023-07-08T18:51:22;29.90;50.90
43995;DHT22;51687;52.160;5.298;2023-07-08T18:53:51;29.90;51.10
43995;DHT22;51687;52.160;5.298;2023-07-08T18:56:18;29.90;49.50
43995;DHT22;51687;52.160;5.298;2023-07-08T18:58:46;29.80;48.80
43995;DHT22;51687;52.160;5.298;2023-07-08T19:01:19;29.80;49.50
43995;DHT22;51687;52.160;5.298;2023-07-08T19:03:47;29.80;50.60
43995;DHT22;51687;52.160;5.298;2023-07-08T19:06:15;29.80;50.20
43995;DHT22;51687;52.160;5.298;2023-07-08T19:08:45;29.70;50.00
43995;DHT22;51687;52.160;5.298;2023-07-08T19:11:21;29.70;49.60
43995;DHT22;51687;52.160;5.298;2023-07-08T19:13:49;29.70;50.90
43995;DHT22;51687;52.160;5.298;2023-07-08T19:16:17;29.70;50.00
43995;DHT22;51687;52.160;5.298;2023-07-08T19:18:49;29.70;50.00
43995;DHT22;51687;52.160;5.298;2023-07-08T19:21:21;29.70;52.30
43995;DHT22;51687;52.160;5.298;2023-07-08T19:23:51;29.60;51.30
43995;DHT22;51687;52.160;5.298;2023-07-08T19:26:21;29.60;50.80
43995;DHT22;51687;52.160;5.298;2023-07-08T19:28:53;29.60;50.60
43995;DHT22;51687;52.160;5.298;2023-07-08T19:31:25;29.60;51.20
43995;DHT22;51687;52.160;5.298;2023-07-08T19:33:52;29.60;51.00
43995;DHT22;51687;52.160;5.298;2023-07-08T19:36:20;29.60;50.90
43995;DHT22;51687;52.160;5.298;2023-07-08T19:38:50;29.60;51.90
43995;DHT22;51687;52.160;5.298;2023-07-08T19:41:26;29.60;52.00
43995;DHT22;51687;52.160;5.298;2023-07-08T19:43:59;29.50;52.00
43995;DHT22;51687;52.160;5.298;2023-07-08T19:46:28;29.50;52.40
43995;DHT22;51687;52.160;5.298;2023-07-08T19:48:55;29.50;52.60
43995;DHT22;51687;52.160;5.298;2023-07-08T19:51:22;29.50;52.50
43995;DHT22;51687;52.160;5.298;2023-07-08T19:53:49;29.50;52.10
43995;DHT22;51687;52.160;5.298;2023-07-08T19:56:19;29.50;52.80
43995;DHT22;51687;52.160;5.298;2023-07-08T19:58:49;29.40;52.50
43995;DHT22;51687;52.160;5.298;2023-07-08T20:01:17;29.40;52.70
43995;DHT22;51687;52.160;5.298;2023-07-08T20:03:44;29.40;52.40
43995;DHT22;51687;52.160;5.298;2023-07-08T20:06:11;29.40;52.80
43995;DHT22;51687;52.160;5.298;2023-07-08T20:08:38;29.30;53.20
43995;DHT22;51687;52.160;5.298;2023-07-08T20:11:07;29.30;53.30
43995;DHT22;51687;52.160;5.298;2023-07-08T20:13:34;29.30;53.30
43995;DHT22;51687;52.160;5.298;2023-07-08T20:16:14;29.30;53.40
43995;DHT22;51687;52.160;5.298;2023-07-08T20:18:42;29.30;53.10